Time;durP1;ratioP1;P1;durP2;ratioP2;P2;SDS_P1;SDS_P2;PMS_P1;PMS_P2;Temp;Humidity;BMP_temperature;BMP_pressure;BME280_temperature;BME280_humidity;BME280_pressure;Samples;Min_cycle;Max_cycle;Signal;HPM_P1;HPM_P2
2022/12/08 00:00:40;;;;;;;16.40;10.30;;;;;;;;;;4808059;29;20060;-70
2022/12/08 00:03:06;;;;;;;16.33;9.13;;;;;;;;;;4807899;29;20491;-70
2022/12/08 00:11:02;;;;;;;16.52;10.13;;;;;;;;;;4807450;29;20096;-70
2022/12/08 00:13:28;;;;;;;20.35;12.27;;;;;;;;;;4808251;29;20568;-70
2022/12/08 00:15:59;;;;;;;45.92;27.63;;;;;;;;;;4807291;29;20149;-70
2022/12/08 00:18:25;;;;;;;22.33;12.43;;;;;;;;;;4807927;29;20055;-70
2022/12/08 00:20:55;;;;;;;20.75;10.88;;;;;;;;;;4807795;29;20046;-70
2022/12/08 00:23:21;;;;;;;17.63;10.20;;;;;;;;;;4808240;29;20064;-70
2022/12/08 00:25:47;;;;;;;15.50;8.80;;;;;;;;;;4807286;29;20055;-70
2022/12/08 00:28:13;;;;;;;14.73;8.80;;;;;;;;;;4807779;29;20043;-70
2022/12/08 00:30:40;;;;;;;17.90;9.23;;;;;;;;;;4807265;29;20130;-70
2022/12/08 00:33:06;;;;;;;16.63;8.85;;;;;;;;;;4808103;29;20061;-70
2022/12/08 00:35:32;;;;;;;16.92;9.05;;;;;;;;;;4807822;29;20062;-70
2022/12/08 00:37:58;;;;;;;15.05;9.23;;;;;;;;;;4810746;29;20046;-70
2022/12/08 00:40:25;;;;;;;15.90;9.52;;;;;;;;;;4810855;29;20050;-70
2022/12/08 00:42:51;;;;;;;15.63;8.57;;;;;;;;;;4810325;29;20050;-70
2022/12/08 00:45:17;;;;;;;14.77;8.75;;;;;;;;;;4810827;29;20046;-70
2022/12/08 00:47:43;;;;;;;10.85;7.30;;;;;;;;;;4811014;29;20058;-70
2022/12/08 00:50:09;;;;;;;14.93;8.90;;;;;;;;;;4810993;29;20173;-70
2022/12/08 00:52:36;;;;;;;14.70;8.60;;;;;;;;;;4810847;29;20093;-70
2022/12/08 00:55:02;;;;;;;13.02;8.02;;;;;;;;;;4811433;29;20046;-70
2022/12/08 00:57:28;;;;;;;18.35;8.63;;;;;;;;;;4810487;29;20050;-70
2022/12/08 00:59:54;;;;;;;14.38;8.55;;;;;;;;;;4810825;29;20099;-70
2022/12/08 01:02:20;;;;;;;15.45;9.77;;;;;;;;;;4810883;29;20047;-70
2022/12/08 01:04:47;;;;;;;17.52;9.32;;;;;;;;;;4810730;29;20061;-70
2022/12/08 01:07:13;;;;;;;11.75;8.15;;;;;;;;;;4810495;29;20043;-70
2022/12/08 01:09:39;;;;;;;13.20;7.85;;;;;;;;;;4810899;29;20077;-70
2022/12/08 01:12:06;;;;;;;16.75;9.40;;;;;;;;;;4810602;29;20043;-70
2022/12/08 01:14:32;;;;;;;14.38;8.38;;;;;;;;;;4810817;29;20050;-70
2022/12/08 01:16:58;;;;;;;15.73;10.43;;;;;;;;;;4810259;29;20051;-70
2022/12/08 01:19:24;;;;;;;14.20;7.97;;;;;;;;;;4810481;29;20057;-70
2022/12/08 01:21:50;;;;;;;14.48;8.75;;;;;;;;;;4809970;29;20043;-70
2022/12/08 01:24:17;;;;;;;15.55;8.93;;;;;;;;;;4810667;29;20153;-70
2022/12/08 01:26:44;;;;;;;14.02;8.40;;;;;;;;;;4810064;29;20046;-70
2022/12/08 01:29:10;;;;;;;14.73;8.55;;;;;;;;;;4810226;29;20043;-70
2022/12/08 01:31:37;;;;;;;16.17;8.35;;;;;;;;;;4810219;29;20050;-70
2022/12/08 01:34:03;;;;;;;16.73;9.75;;;;;;;;;;4809974;29;20078;-70
2022/12/08 01:36:30;;;;;;;13.85;9.02;;;;;;;;;;4809888;29;20046;-70
2022/12/08 01:38:57;;;;;;;15.25;9.30;;;;;;;;;;4810161;29;20055;-70
2022/12/08 01:41:25;;;;;;;16.90;9.82;;;;;;;;;;4810075;29;20127;-70
2022/12/08 01:43:54;;;;;;;13.80;8.90;;;;;;;;;;4810326;29;20051;-70
2022/12/08 01:46:20;;;;;;;15.45;8.90;;;;;;;;;;4809417;29;20116;-70
2022/12/08 01:48:46;;;;;;;14.10;8.95;;;;;;;;;;4810344;29;20076;-70
2022/12/08 01:51:13;;;;;;;16.50;9.00;;;;;;;;;;4809703;29;20203;-70
2022/12/08 01:53:39;;;;;;;13.73;8.30;;;;;;;;;;4810063;29;20514;-70
2022/12/08 01:56:08;;;;;;;12.38;8.43;;;;;;;;;;4809488;29;20483;-70
2022/12/08 01:58:35;;;;;;;12.68;7.57;;;;;;;;;;4810372;29;20048;-70
2022/12/08 02:01:01;;;;;;;10.27;7.13;;;;;;;;;;4809702;29;20039;-70
2022/12/08 02:03:33;;;;;;;9.98;6.43;;;;;;;;;;4810073;29;20057;-70
2022/12/08 02:05:59;;;;;;;8.60;5.78;;;;;;;;;;4809700;29;20051;-70
2022/12/08 02:08:26;;;;;;;7.78;5.80;;;;;;;;;;4809548;29;20126;-70
2022/12/08 02:10:52;;;;;;;11.48;4.97;;;;;;;;;;4809633;29;20511;-70
2022/12/08 02:13:20;;;;;;;7.47;5.15;;;;;;;;;;4810154;29;20122;-70
2022/12/08 02:15:55;;;;;;;9.60;5.80;;;;;;;;;;4809180;29;20509;-70
2022/12/08 02:18:40;;;;;;;5.85;4.68;;;;;;;;;;4809565;29;20055;-70
2022/12/08 02:21:10;;;;;;;9.02;5.25;;;;;;;;;;4793123;29;20407;-70
2022/12/08 02:23:41;;;;;;;7.72;4.38;;;;;;;;;;4809023;29;20484;-70
2022/12/08 02:26:16;;;;;;;10.13;4.90;;;;;;;;;;4809134;29;20085;-70
2022/12/08 02:28:42;;;;;;;8.40;5.60;;;;;;;;;;4809291;29;20040;-70
2022/12/08 02:31:23;;;;;;;7.45;4.45;;;;;;;;;;4809243;29;20043;-70
2022/12/08 02:33:49;;;;;;;8.10;4.32;;;;;;;;;;4809311;29;20076;-70
2022/12/08 02:36:18;;;;;;;8.02;4.63;;;;;;;;;;4809245;29;20042;-70
2022/12/08 02:39:10;;;;;;;7.65;4.55;;;;;;;;;;4808733;29;20129;-70
2022/12/08 02:41:56;;;;;;;6.85;3.85;;;;;;;;;;4809497;29;20058;-70
2022/12/08 02:44:29;;;;;;;7.18;4.13;;;;;;;;;;4809127;29;20082;-70
2022/12/08 02:46:57;;;;;;;7.40;4.10;;;;;;;;;;4808413;29;20427;-70
2022/12/08 02:49:31;;;;;;;7.15;4.35;;;;;;;;;;4808394;29;20466;-70
2022/12/08 02:52:04;;;;;;;5.97;3.72;;;;;;;;;;4808675;29;20055;-70
2022/12/08 02:54:30;;;;;;;5.22;3.70;;;;;;;;;;4808581;29;20047;-70
2022/12/08 02:57:19;;;;;;;5.65;3.78;;;;;;;;;;4808508;29;20099;-70
2022/12/08 02:59:56;;;;;;;7.10;4.32;;;;;;;;;;4798550;29;20089;-70
2022/12/08 03:02:41;;;;;;;8.43;4.43;;;;;;;;;;4808350;29;20051;-70
2022/12/08 03:05:20;;;;;;;8.27;3.53;;;;;;;;;;4808531;29;20080;-70
2022/12/08 03:08:15;;;;;;;6.43;4.15;;;;;;;;;;4808272;29;20047;-70
2022/12/08 03:11:01;;;;;;;6.10;3.75;;;;;;;;;;4792865;29;20125;-69
2022/12/08 03:13:38;;;;;;;8.32;4.43;;;;;;;;;;4808941;29;20046;-70
2022/12/08 03:16:06;;;;;;;5.72;3.85;;;;;;;;;;4807862;29;20042;-70
2022/12/08 03:18:34;;;;;;;5.18;3.92;;;;;;;;;;4808418;29;20054;-70
2022/12/08 03:21:01;;;;;;;6.88;4.50;;;;;;;;;;4808131;29;20125;-70
2022/12/08 03:23:27;;;;;;;6.55;4.13;;;;;;;;;;4807555;29;20089;-70
2022/12/08 03:25:59;;;;;;;8.25;5.00;;;;;;;;;;4808057;29;20053;-70
2022/12/08 03:28:25;;;;;;;6.28;4.75;;;;;;;;;;4808348;29;20072;-70
2022/12/08 03:30:53;;;;;;;7.65;5.00;;;;;;;;;;4808193;29;20043;-70
2022/12/08 03:33:23;;;;;;;8.35;5.20;;;;;;;;;;4808264;29;20176;-70
2022/12/08 03:35:50;;;;;;;7.60;4.75;;;;;;;;;;4808002;29;20103;-70
2022/12/08 03:38:16;;;;;;;8.07;4.75;;;;;;;;;;4807703;29;20057;-70
2022/12/08 03:40:43;;;;;;;5.00;3.83;;;;;;;;;;4808043;29;20054;-70
2022/12/08 03:43:09;;;;;;;8.18;4.90;;;;;;;;;;4808113;29;20117;-70
2022/12/08 03:45:36;;;;;;;6.97;4.32;;;;;;;;;;4807930;29;20049;-70
2022/12/08 03:48:02;;;;;;;7.03;3.95;;;;;;;;;;4807531;29;20414;-70
2022/12/08 03:50:28;;;;;;;5.80;3.65;;;;;;;;;;4807664;29;20047;-70
2022/12/08 03:52:54;;;;;;;6.82;4.30;;;;;;;;;;4807546;29;20055;-70
2022/12/08 03:55:20;;;;;;;5.65;3.70;;;;;;;;;;4807849;29;20047;-70
2022/12/08 03:57:46;;;;;;;6.30;3.90;;;;;;;;;;4807297;29;20516;-70
2022/12/08 04:00:14;;;;;;;6.90;3.38;;;;;;;;;;4807289;29;20051;-70
2022/12/08 04:02:40;;;;;;;7.32;3.90;;;;;;;;;;4807604;29;20047;-70
2022/12/08 04:05:07;;;;;;;5.38;3.88;;;;;;;;;;4807617;29;20034;-70
2022/12/08 04:07:33;;;;;;;6.45;3.85;;;;;;;;;;4807119;29;20047;-70
2022/12/08 04:09:59;;;;;;;6.70;3.70;;;;;;;;;;4807563;29;20043;-70
2022/12/08 04:12:25;;;;;;;8.82;4.57;;;;;;;;;;4807296;29;20384;-70
2022/12/08 04:14:51;;;;;;;6.13;4.03;;;;;;;;;;4807434;29;20054;-70
2022/12/08 04:17:17;;;;;;;6.05;4.18;;;;;;;;;;4807470;29;20061;-70
2022/12/08 04:19:43;;;;;;;7.00;4.88;;;;;;;;;;4807391;29;20051;-70
2022/12/08 04:22:09;;;;;;;6.78;4.38;;;;;;;;;;4806843;29;20057;-70
2022/12/08 04:24:36;;;;;;;7.35;4.65;;;;;;;;;;4807593;29;20051;-69
2022/12/08 04:27:02;;;;;;;6.82;4.65;;;;;;;;;;4807016;29;20466;-70
2022/12/08 04:29:28;;;;;;;9.57;5.03;;;;;;;;;;4806971;29;20066;-70
2022/12/08 04:31:54;;;;;;;8.95;4.82;;;;;;;;;;4807580;29;20125;-70
2022/12/08 04:34:20;;;;;;;9.00;4.90;;;;;;;;;;4807290;29;20080;-70
2022/12/08 04:36:46;;;;;;;7.32;4.10;;;;;;;;;;4806997;29;20551;-70
2022/12/08 04:39:12;;;;;;;6.90;3.47;;;;;;;;;;4807213;29;20058;-70
2022/12/08 04:41:38;;;;;;;5.10;3.72;;;;;;;;;;4807533;29;20058;-70
2022/12/08 04:44:05;;;;;;;5.15;3.65;;;;;;;;;;4806909;29;20043;-70
2022/12/08 04:46:31;;;;;;;5.07;3.55;;;;;;;;;;4806681;29;20542;-70
2022/12/08 04:48:57;;;;;;;5.97;3.75;;;;;;;;;;4806847;29;20042;-70
2022/12/08 04:51:23;;;;;;;5.22;3.17;;;;;;;;;;4806812;29;20379;-70
2022/12/08 04:53:49;;;;;;;4.35;3.22;;;;;;;;;;4806892;29;20050;-70
2022/12/08 04:56:16;;;;;;;5.28;3.40;;;;;;;;;;4807088;29;20055;-70
2022/12/08 04:58:42;;;;;;;5.07;3.30;;;;;;;;;;4807041;29;20096;-69
2022/12/08 05:01:09;;;;;;;5.28;3.17;;;;;;;;;;4814662;29;20050;-70
2022/12/08 05:03:35;;;;;;;5.32;3.17;;;;;;;;;;4825413;29;20064;-69
2022/12/08 05:06:01;;;;;;;5.50;2.83;;;;;;;;;;4824935;29;20110;-69
2022/12/08 05:08:28;;;;;;;6.45;3.50;;;;;;;;;;4824965;29;20102;-69
2022/12/08 05:11:00;;;;;;;7.88;4.22;;;;;;;;;;4824977;29;20038;-69
2022/12/08 05:13:26;;;;;;;7.00;3.80;;;;;;;;;;4825068;29;20495;-69
2022/12/08 05:15:52;;;;;;;10.13;4.50;;;;;;;;;;4824613;29;20050;-69
2022/12/08 05:18:19;;;;;;;8.75;4.50;;;;;;;;;;4825257;29;20046;-69
2022/12/08 05:20:45;;;;;;;7.25;4.60;;;;;;;;;;4824978;29;20529;-69
2022/12/08 05:23:11;;;;;;;9.88;5.20;;;;;;;;;;4827691;29;20057;-69
2022/12/08 05:25:37;;;;;;;10.77;5.78;;;;;;;;;;4828133;29;20046;-69
2022/12/08 05:28:03;;;;;;;12.20;6.78;;;;;;;;;;4828119;29;20046;-69
2022/12/08 05:30:29;;;;;;;10.00;6.15;;;;;;;;;;4827822;29;20096;-69
2022/12/08 05:32:55;;;;;;;9.05;6.10;;;;;;;;;;4827534;29;20082;-70
2022/12/08 05:35:21;;;;;;;6.25;4.10;;;;;;;;;;4827933;29;20046;-70
2022/12/08 05:37:47;;;;;;;10.27;4.63;;;;;;;;;;4815595;29;20504;-71
2022/12/08 05:40:13;;;;;;;5.32;3.78;;;;;;;;;;4794944;29;20511;-71
2022/12/08 05:42:40;;;;;;;6.85;4.47;;;;;;;;;;4803514;29;20058;-71
2022/12/08 05:45:06;;;;;;;11.18;4.30;;;;;;;;;;4813282;29;20043;-71
2022/12/08 05:47:32;;;;;;;9.10;5.15;;;;;;;;;;4808516;29;20086;-70
2022/12/08 05:49:58;;;;;;;8.20;4.90;;;;;;;;;;4809688;29;20133;-71
2022/12/08 05:52:24;;;;;;;8.07;5.25;;;;;;;;;;4804858;29;20055;-71
2022/12/08 05:54:50;;;;;;;7.25;5.00;;;;;;;;;;4792006;30;20043;-71
2022/12/08 05:57:17;;;;;;;8.40;5.18;;;;;;;;;;4791741;30;20051;-71
2022/12/08 05:59:43;;;;;;;7.00;4.40;;;;;;;;;;4791470;30;20121;-71
2022/12/08 06:02:09;;;;;;;7.00;4.03;;;;;;;;;;4791673;30;20048;-71
2022/12/08 06:04:35;;;;;;;7.20;3.63;;;;;;;;;;4799209;29;20039;-74
2022/12/08 06:07:02;;;;;;;4.95;3.38;;;;;;;;;;4791050;30;20051;-71
2022/12/08 06:09:28;;;;;;;4.95;3.50;;;;;;;;;;4807013;29;20123;-71
2022/12/08 06:11:54;;;;;;;4.72;3.70;;;;;;;;;;4808666;29;20053;-71
2022/12/08 06:14:20;;;;;;;5.13;3.42;;;;;;;;;;4802157;29;20039;-71
2022/12/08 06:16:46;;;;;;;5.90;3.70;;;;;;;;;;4800973;29;20082;-71
2022/12/08 06:19:12;;;;;;;6.40;3.85;;;;;;;;;;4812678;29;20129;-71
2022/12/08 06:21:39;;;;;;;4.88;3.70;;;;;;;;;;4819393;29;20051;-72
2022/12/08 06:24:05;;;;;;;6.25;3.65;;;;;;;;;;4808038;29;20047;-71
2022/12/08 06:26:31;;;;;;;7.90;4.00;;;;;;;;;;4808122;29;20059;-71
2022/12/08 06:28:59;;;;;;;7.72;4.00;;;;;;;;;;4807251;29;20592;-71
2022/12/08 06:31:26;;;;;;;9.60;4.88;;;;;;;;;;4807268;29;20094;-71
2022/12/08 06:33:52;;;;;;;10.57;6.30;;;;;;;;;;4806311;29;20102;-71
2022/12/08 06:36:19;;;;;;;14.25;8.00;;;;;;;;;;4807519;29;20090;-71
2022/12/08 06:38:45;;;;;;;11.25;6.97;;;;;;;;;;4808071;29;20096;-72
2022/12/08 06:41:12;;;;;;;8.55;5.18;;;;;;;;;;4807503;29;20391;-73
2022/12/08 06:43:38;;;;;;;8.73;5.57;;;;;;;;;;4807129;29;20058;-70
2022/12/08 06:46:05;;;;;;;9.32;5.22;;;;;;;;;;4807159;29;20062;-71
2022/12/08 06:48:31;;;;;;;9.32;5.72;;;;;;;;;;4807748;29;20046;-71
2022/12/08 06:50:57;;;;;;;8.70;5.70;;;;;;;;;;4801429;29;20054;-69
2022/12/08 06:53:23;;;;;;;11.80;7.13;;;;;;;;;;4793174;29;20047;-70
2022/12/08 06:55:53;;;;;;;11.27;7.43;;;;;;;;;;4806985;29;20051;-71
2022/12/08 06:58:19;;;;;;;13.95;8.18;;;;;;;;;;4807675;29;20070;-72
2022/12/08 07:00:46;;;;;;;13.07;7.38;;;;;;;;;;4808259;29;20046;-71
2022/12/08 07:03:12;;;;;;;16.15;9.82;;;;;;;;;;4807940;29;20047;-71
2022/12/08 07:05:39;;;;;;;12.93;6.80;;;;;;;;;;4806863;29;20491;-71
2022/12/08 07:08:06;;;;;;;10.48;6.35;;;;;;;;;;4797529;29;20046;-71
2022/12/08 07:10:32;;;;;;;7.25;5.18;;;;;;;;;;4797391;29;20046;-71
2022/12/08 07:12:58;;;;;;;8.60;5.32;;;;;;;;;;4798726;29;20050;-71
2022/12/08 07:15:24;;;;;;;7.60;5.30;;;;;;;;;;4797643;29;20500;-71
2022/12/08 07:17:51;;;;;;;7.78;4.50;;;;;;;;;;4804985;29;20054;-73
2022/12/08 07:20:17;;;;;;;8.95;4.85;;;;;;;;;;4807867;29;20512;-72
2022/12/08 07:22:50;;;;;;;6.88;4.70;;;;;;;;;;4808068;29;20047;-72
2022/12/08 07:25:16;;;;;;;6.30;4.75;;;;;;;;;;4808125;29;20069;-70
2022/12/08 07:27:42;;;;;;;8.35;5.30;;;;;;;;;;4808071;29;20191;-69
2022/12/08 07:30:09;;;;;;;8.13;4.45;;;;;;;;;;4807444;29;20483;-69
2022/12/08 07:32:36;;;;;;;7.30;4.95;;;;;;;;;;4807585;29;20117;-69
2022/12/08 07:35:02;;;;;;;12.35;5.68;;;;;;;;;;4807598;29;20043;-69
2022/12/08 07:37:28;;;;;;;12.07;5.32;;;;;;;;;;4807413;29;20119;-69
2022/12/08 07:39:55;;;;;;;9.48;6.03;;;;;;;;;;4807834;29;20055;-69
2022/12/08 07:42:21;;;;;;;9.27;6.40;;;;;;;;;;4808001;29;20055;-69
2022/12/08 07:44:47;;;;;;;8.05;5.60;;;;;;;;;;4807499;29;20107;-69
2022/12/08 07:47:13;;;;;;;9.57;5.68;;;;;;;;;;4807934;29;20572;-69
2022/12/08 07:49:39;;;;;;;14.18;5.63;;;;;;;;;;4808015;29;20050;-69
2022/12/08 07:52:05;;;;;;;10.27;5.85;;;;;;;;;;4807539;29;20057;-69
2022/12/08 07:54:31;;;;;;;8.23;5.63;;;;;;;;;;4807989;29;20050;-69
2022/12/08 07:56:57;;;;;;;8.10;5.47;;;;;;;;;;4807582;29;20130;-69
2022/12/08 07:59:24;;;;;;;9.10;5.00;;;;;;;;;;4807609;29;20051;-69
2022/12/08 08:01:50;;;;;;;9.57;5.43;;;;;;;;;;4808026;29;20175;-69
2022/12/08 08:04:16;;;;;;;10.63;5.45;;;;;;;;;;4808100;29;20084;-69
2022/12/08 08:06:42;;;;;;;8.25;6.00;;;;;;;;;;4807656;29;20051;-69
2022/12/08 08:09:09;;;;;;;11.05;6.07;;;;;;;;;;4807951;29;20053;-69
2022/12/08 08:11:35;;;;;;;10.40;5.70;;;;;;;;;;4808236;29;20136;-69
2022/12/08 08:14:02;;;;;;;11.50;6.85;;;;;;;;;;4807741;29;20168;-69
2022/12/08 08:16:28;;;;;;;12.00;6.05;;;;;;;;;;4807611;29;20066;-69
2022/12/08 08:18:54;;;;;;;10.30;6.28;;;;;;;;;;4807410;29;20258;-69
2022/12/08 08:21:21;;;;;;;10.95;6.53;;;;;;;;;;4807659;29;20057;-69
2022/12/08 08:23:47;;;;;;;11.63;6.15;;;;;;;;;;4807273;29;20053;-69
2022/12/08 08:26:13;;;;;;;13.98;7.30;;;;;;;;;;4807358;29;20109;-69
2022/12/08 08:28:40;;;;;;;11.23;6.68;;;;;;;;;;4807593;29;20043;-69
2022/12/08 08:31:06;;;;;;;11.32;6.72;;;;;;;;;;4807514;29;20134;-69
2022/12/08 08:33:32;;;;;;;11.63;5.75;;;;;;;;;;4807827;29;20050;-71
2022/12/08 08:35:59;;;;;;;13.60;6.97;;;;;;;;;;4807423;29;20046;-72
2022/12/08 08:38:25;;;;;;;10.80;6.40;;;;;;;;;;4807094;29;20495;-71
2022/12/08 08:40:51;;;;;;;11.95;6.63;;;;;;;;;;4807453;29;20051;-71
2022/12/08 08:43:35;;;;;;;11.85;7.03;;;;;;;;;;4806896;29;20071;-69
2022/12/08 08:46:03;;;;;;;13.95;7.28;;;;;;;;;;4807626;29;20058;-69
2022/12/08 08:48:31;;;;;;;11.25;6.93;;;;;;;;;;4807640;29;20127;-69
2022/12/08 08:50:58;;;;;;;12.95;7.15;;;;;;;;;;4806854;29;20055;-69
2022/12/08 08:53:24;;;;;;;14.45;7.10;;;;;;;;;;4806939;29;20122;-69
2022/12/08 08:55:50;;;;;;;12.32;7.53;;;;;;;;;;4806719;29;20577;-69
2022/12/08 08:58:17;;;;;;;15.73;7.85;;;;;;;;;;4810163;29;20035;-69
2022/12/08 09:00:43;;;;;;;12.38;7.13;;;;;;;;;;4810809;29;20046;-69
2022/12/08 09:03:09;;;;;;;13.20;7.90;;;;;;;;;;4810581;29;20074;-69
2022/12/08 09:05:38;;;;;;;15.02;7.68;;;;;;;;;;4810215;29;20038;-69
2022/12/08 09:08:04;;;;;;;17.63;8.25;;;;;;;;;;4809960;29;20042;-69
2022/12/08 09:10:30;;;;;;;15.77;8.73;;;;;;;;;;4810672;29;20053;-69
2022/12/08 09:12:57;;;;;;;12.45;7.93;;;;;;;;;;4810435;29;20049;-69
2022/12/08 09:15:23;;;;;;;14.25;8.55;;;;;;;;;;4810029;29;20427;-69
2022/12/08 09:17:49;;;;;;;14.15;8.75;;;;;;;;;;4810167;29;20127;-69
2022/12/08 09:20:15;;;;;;;19.30;9.75;;;;;;;;;;4810575;29;20099;-69
2022/12/08 09:22:41;;;;;;;14.95;9.00;;;;;;;;;;4810130;29;20133;-69
2022/12/08 09:25:07;;;;;;;20.48;10.07;;;;;;;;;;4810132;29;20146;-69
2022/12/08 09:27:34;;;;;;;17.30;9.48;;;;;;;;;;4810115;29;20103;-69
2022/12/08 09:30:00;;;;;;;22.10;12.25;;;;;;;;;;4810062;29;20066;-69
2022/12/08 09:32:26;;;;;;;24.33;15.75;;;;;;;;;;4810224;29;20078;-69
2022/12/08 09:34:53;;;;;;;28.48;18.17;;;;;;;;;;4809919;29;20043;-69
2022/12/08 09:37:19;;;;;;;16.05;9.73;;;;;;;;;;4809605;29;20115;-71
2022/12/08 09:39:46;;;;;;;19.17;11.43;;;;;;;;;;4809925;29;20134;-69
2022/12/08 09:42:12;;;;;;;25.30;15.50;;;;;;;;;;4810075;29;20051;-69
2022/12/08 09:44:43;;;;;;;19.05;10.43;;;;;;;;;;4809530;29;20050;-69
2022/12/08 09:47:18;;;;;;;16.35;9.57;;;;;;;;;;4810124;29;20168;-69
2022/12/08 09:49:52;;;;;;;16.15;11.00;;;;;;;;;;4810022;29;20058;-69
2022/12/08 09:52:24;;;;;;;17.27;8.95;;;;;;;;;;4809750;29;20054;-69
2022/12/08 09:54:50;;;;;;;19.90;11.07;;;;;;;;;;4809728;29;20055;-69
2022/12/08 09:57:19;;;;;;;18.73;10.82;;;;;;;;;;4809810;29;20061;-69
2022/12/08 09:59:47;;;;;;;24.27;15.73;;;;;;;;;;4809847;29;20506;-69
2022/12/08 10:02:24;;;;;;;20.17;10.98;;;;;;;;;;4810065;29;20122;-69
2022/12/08 10:04:50;;;;;;;19.02;11.50;;;;;;;;;;4810235;29;20051;-69
2022/12/08 10:07:17;;;;;;;19.92;10.57;;;;;;;;;;4809477;29;20518;-69
2022/12/08 10:09:50;;;;;;;20.65;11.45;;;;;;;;;;4809705;29;20125;-69
2022/12/08 10:12:19;;;;;;;18.50;11.35;;;;;;;;;;4809822;29;20047;-69
2022/12/08 10:14:47;;;;;;;18.98;11.07;;;;;;;;;;4809556;29;20042;-69
2022/12/08 10:17:22;;;;;;;20.00;11.15;;;;;;;;;;4809674;29;20065;-69
2022/12/08 10:19:49;;;;;;;18.35;12.15;;;;;;;;;;4809550;29;20050;-69
2022/12/08 10:22:22;;;;;;;20.33;12.75;;;;;;;;;;4793244;29;20503;-69
2022/12/08 10:25:14;;;;;;;19.70;14.43;;;;;;;;;;4809143;29;20053;-69
2022/12/08 10:27:40;;;;;;;24.13;13.07;;;;;;;;;;4805010;29;20432;-69
2022/12/08 10:30:11;;;;;;;19.27;11.60;;;;;;;;;;4809204;29;20074;-69
2022/12/08 10:32:38;;;;;;;22.38;11.65;;;;;;;;;;4809386;29;20043;-69
2022/12/08 10:35:07;;;;;;;23.15;11.80;;;;;;;;;;4809010;29;20081;-69
2022/12/08 10:37:33;;;;;;;19.25;12.23;;;;;;;;;;4808987;29;20082;-69
2022/12/08 10:40:03;;;;;;;22.38;15.55;;;;;;;;;;4809437;29;20035;-69
2022/12/08 10:42:33;;;;;;;23.48;15.65;;;;;;;;;;4809253;29;20495;-69
2022/12/08 10:45:02;;;;;;;27.45;15.15;;;;;;;;;;4809150;29;20051;-69
2022/12/08 10:47:29;;;;;;;27.98;15.95;;;;;;;;;;4809077;29;20047;-69
2022/12/08 10:50:14;;;;;;;20.98;12.98;;;;;;;;;;4808988;29;20070;-69
2022/12/08 10:52:40;;;;;;;27.13;15.35;;;;;;;;;;4808855;29;20042;-69
2022/12/08 10:55:14;;;;;;;21.17;13.23;;;;;;;;;;4808835;29;20038;-69
2022/12/08 10:57:40;;;;;;;27.90;18.45;;;;;;;;;;4808834;29;20046;-69
2022/12/08 11:00:06;;;;;;;19.65;11.93;;;;;;;;;;4808882;29;20050;-69
2022/12/08 11:02:33;;;;;;;22.10;11.30;;;;;;;;;;4808566;29;20054;-69
2022/12/08 11:04:59;;;;;;;20.05;11.95;;;;;;;;;;4808484;29;20054;-69
2022/12/08 11:10:34;;;;;;;21.98;13.38;;;;;;;;;;4808155;29;20034;-69
2022/12/08 11:13:04;;;;;;;21.60;14.43;;;;;;;;;;4808531;29;20073;-69
2022/12/08 11:15:35;;;;;;;23.42;16.80;;;;;;;;;;4808832;29;20047;-69
2022/12/08 11:18:06;;;;;;;25.25;16.45;;;;;;;;;;4807974;29;20049;-69
2022/12/08 11:20:40;;;;;;;21.40;13.20;;;;;;;;;;4807844;29;20125;-69
2022/12/08 11:23:18;;;;;;;21.75;14.00;;;;;;;;;;4807988;29;20491;-69
2022/12/08 11:25:45;;;;;;;20.45;12.18;;;;;;;;;;4808667;29;20050;-69
2022/12/08 11:28:11;;;;;;;19.02;12.63;;;;;;;;;;4808346;29;20042;-69
2022/12/08 11:30:38;;;;;;;20.60;12.30;;;;;;;;;;4808232;29;20049;-69
2022/12/08 11:33:19;;;;;;;21.88;13.35;;;;;;;;;;4808461;29;20534;-69
2022/12/08 11:35:45;;;;;;;;;;;;;;;;;;4808985;29;20077;-71
2022/12/08 11:38:13;;;;;;;19.35;11.18;;;;;;;;;;4808054;29;20349;-69
2022/12/08 11:40:40;;;;;;;23.63;11.80;;;;;;;;;;4807857;29;20050;-69
2022/12/08 11:43:16;;;;;;;22.27;12.20;;;;;;;;;;4807822;29;20042;-69
2022/12/08 11:45:43;;;;;;;20.13;11.18;;;;;;;;;;4808282;29;20050;-71
2022/12/08 11:48:15;;;;;;;22.02;11.80;;;;;;;;;;4807751;29;20062;-69
2022/12/08 11:50:47;;;;;;;17.63;11.10;;;;;;;;;;4807668;29;20047;-69
2022/12/08 11:53:17;;;;;;;18.58;11.90;;;;;;;;;;4807381;29;20050;-69
2022/12/08 11:55:45;;;;;;;18.40;11.40;;;;;;;;;;4807817;29;20133;-69
2022/12/08 11:58:14;;;;;;;21.33;11.88;;;;;;;;;;4807634;29;20130;-71
2022/12/08 12:00:40;;;;;;;19.20;11.35;;;;;;;;;;4807609;29;20055;-70
2022/12/08 12:03:15;;;;;;;19.40;11.32;;;;;;;;;;4807617;29;20054;-72
2022/12/08 12:05:44;;;;;;;23.05;12.45;;;;;;;;;;4807774;29;20095;-69
2022/12/08 12:08:30;;;;;;;18.95;11.73;;;;;;;;;;4807332;29;20129;-69
2022/12/08 12:14:16;;;;;;;19.77;11.27;;;;;;;;;;4798999;29;20092;-69
2022/12/08 12:16:45;;;;;;;19.70;12.25;;;;;;;;;;4807510;29;20065;-69
2022/12/08 12:19:16;;;;;;;22.15;12.18;;;;;;;;;;4807408;29;20039;-69
2022/12/08 12:21:48;;;;;;;18.80;11.75;;;;;;;;;;4807367;29;20074;-70
2022/12/08 12:24:14;;;;;;;19.40;11.57;;;;;;;;;;4807669;29;20050;-69
2022/12/08 12:26:51;;;;;;;22.15;11.75;;;;;;;;;;4807548;29;20058;-70
2022/12/08 12:29:19;;;;;;;22.85;11.88;;;;;;;;;;4807349;29;20117;-69
2022/12/08 12:31:51;;;;;;;23.85;12.32;;;;;;;;;;4809595;29;20047;-71
2022/12/08 12:34:20;;;;;;;21.35;13.45;;;;;;;;;;4811024;29;20042;-69
2022/12/08 12:36:58;;;;;;;21.77;13.55;;;;;;;;;;4810491;29;20110;-69
2022/12/08 12:39:28;;;;;;;18.98;11.23;;;;;;;;;;4811066;29;20062;-69
2022/12/08 12:41:57;;;;;;;19.55;11.50;;;;;;;;;;4810965;29;20050;-69
2022/12/08 12:44:23;;;;;;;19.80;11.98;;;;;;;;;;4811214;29;20152;-69
2022/12/08 12:46:49;;;;;;;21.58;12.45;;;;;;;;;;4810793;29;20058;-69
2022/12/08 12:49:33;;;;;;;19.75;11.93;;;;;;;;;;4811106;29;20131;-69
2022/12/08 12:52:00;;;;;;;17.02;12.00;;;;;;;;;;4811358;29;20042;-69
2022/12/08 12:54:27;;;;;;;20.67;12.85;;;;;;;;;;4810963;29;20130;-69
2022/12/08 12:57:15;;;;;;;24.17;13.40;;;;;;;;;;4810587;29;20407;-69
2022/12/08 13:00:05;;;;;;;22.50;13.75;;;;;;;;;;4811684;29;20054;-69
2022/12/08 13:02:33;;;;;;;23.63;14.07;;;;;;;;;;4810979;29;20146;-69
2022/12/08 13:05:08;;;;;;;24.80;13.63;;;;;;;;;;4810628;29;20050;-69
2022/12/08 13:07:40;;;;;;;22.70;12.70;;;;;;;;;;4810680;29;20130;-69
2022/12/08 13:10:06;;;;;;;24.73;14.88;;;;;;;;;;4810782;29;20043;-69
2022/12/08 13:12:33;;;;;;;22.40;12.77;;;;;;;;;;4810724;29;20514;-69
2022/12/08 13:15:02;;;;;;;21.95;13.10;;;;;;;;;;4810331;29;20376;-69
2022/12/08 13:17:29;;;;;;;23.33;14.52;;;;;;;;;;4810503;29;20511;-71
2022/12/08 13:19:57;;;;;;;26.50;14.55;;;;;;;;;;4810549;29;20047;-69
2022/12/08 13:22:42;;;;;;;21.02;13.20;;;;;;;;;;4810449;29;20484;-69
2022/12/08 13:25:26;;;;;;;19.67;12.57;;;;;;;;;;4810435;29;20043;-69
2022/12/08 13:27:53;;;;;;;20.23;12.20;;;;;;;;;;4810177;29;20051;-69
2022/12/08 13:30:38;;;;;;;21.38;13.07;;;;;;;;;;4810897;29;20100;-69
2022/12/08 13:33:05;;;;;;;22.65;12.63;;;;;;;;;;4809854;29;20387;-69
2022/12/08 13:35:31;;;;;;;22.63;16.13;;;;;;;;;;4810550;29;20051;-69
2022/12/08 13:37:59;;;;;;;22.48;12.90;;;;;;;;;;4809738;29;20054;-69
2022/12/08 13:40:28;;;;;;;24.48;14.40;;;;;;;;;;4810139;29;20050;-69
2022/12/08 13:43:15;;;;;;;21.50;11.05;;;;;;;;;;4793801;29;20357;-69
2022/12/08 13:45:42;;;;;;;22.13;12.40;;;;;;;;;;4810648;29;20047;-69
2022/12/08 13:48:20;;;;;;;20.33;12.57;;;;;;;;;;4809175;29;20062;-69
2022/12/08 13:51:05;;;;;;;22.27;13.05;;;;;;;;;;4809724;29;20046;-69
2022/12/08 13:53:37;;;;;;;19.98;11.38;;;;;;;;;;4809700;29;20047;-69
2022/12/08 13:56:04;;;;;;;19.70;11.70;;;;;;;;;;4809667;29;20059;-69
2022/12/08 13:58:36;;;;;;;20.48;12.10;;;;;;;;;;4809373;29;20086;-69
2022/12/08 14:01:05;;;;;;;18.77;12.52;;;;;;;;;;4809826;29;20085;-69
2022/12/08 14:03:37;;;;;;;22.25;11.68;;;;;;;;;;4809341;29;20119;-69
2022/12/08 14:06:03;;;;;;;16.98;11.30;;;;;;;;;;4809710;29;20054;-69
2022/12/08 14:08:30;;;;;;;24.27;11.82;;;;;;;;;;4808940;29;20039;-69
2022/12/08 14:10:59;;;;;;;20.27;12.23;;;;;;;;;;4809615;29;20046;-69
2022/12/08 14:13:25;;;;;;;18.38;11.77;;;;;;;;;;4793436;29;20385;-69
2022/12/08 14:15:51;;;;;;;22.38;13.85;;;;;;;;;;4809259;29;20070;-69
2022/12/08 14:18:30;;;;;;;20.95;12.27;;;;;;;;;;4809308;29;20077;-69
2022/12/08 14:21:04;;;;;;;20.25;12.02;;;;;;;;;;4808961;29;20464;-69
2022/12/08 14:23:33;;;;;;;19.73;11.45;;;;;;;;;;4809194;29;20122;-69
2022/12/08 14:26:00;;;;;;;15.65;11.05;;;;;;;;;;4809073;29;20046;-69
2022/12/08 14:28:26;;;;;;;19.20;10.95;;;;;;;;;;4809139;29;20038;-69
2022/12/08 14:30:54;;;;;;;19.40;11.90;;;;;;;;;;4808817;29;20050;-69
2022/12/08 14:33:20;;;;;;;25.20;16.95;;;;;;;;;;4809110;29;20066;-69
2022/12/08 14:35:51;;;;;;;16.40;11.20;;;;;;;;;;4808595;29;20050;-69
2022/12/08 14:38:18;;;;;;;22.15;12.25;;;;;;;;;;4808569;29;20039;-69
2022/12/08 14:40:45;;;;;;;20.20;11.60;;;;;;;;;;4808924;29;20046;-69
2022/12/08 14:43:12;;;;;;;18.50;11.00;;;;;;;;;;4809184;29;20047;-69
2022/12/08 14:45:38;;;;;;;24.38;12.55;;;;;;;;;;4808479;29;20102;-71
2022/12/08 14:48:21;;;;;;;17.45;11.77;;;;;;;;;;4809654;29;20057;-69
2022/12/08 14:51:09;;;;;;;18.58;10.93;;;;;;;;;;4809429;29;20511;-69